Time;durP1;ratioP1;P1;durP2;ratioP2;P2;SDS_P1;SDS_P2;PMS_P1;PMS_P2;Temp;Humidity;BMP_temperature;BMP_pressure;BME280_temperature;BME280_humidity;BME280_pressure;Samples;Min_cycle;Max_cycle;Signal;HPM_P1;HPM_P2
2021/12/12 00:00:48;;;;;;;107.28;54.35;;;;;;;0.00;100.00;99503.66;2078739;28;20231;-72
2021/12/12 00:02:07;;;;;;;116.93;57.40;;;;;;;0.05;100.00;99508.25;2078392;28;20235;-73
2021/12/12 00:03:32;;;;;;;125.15;56.60;;;;;;;-0.02;100.00;99508.31;2078665;28;20576;-73
2021/12/12 00:04:47;;;;;;;117.43;56.60;;;;;;;-0.08;100.00;99504.75;2078995;28;20235;-72
2021/12/12 00:05:56;;;;;;;116.68;56.78;;;;;;;-0.12;100.00;99502.75;2079233;28;20627;-73
2021/12/12 00:07:04;;;;;;;112.53;56.65;;;;;;;-0.16;100.00;99506.84;2078195;28;20616;-73
2021/12/12 00:08:11;;;;;;;125.05;59.70;;;;;;;-0.10;100.00;99521.69;2076572;28;20226;-73
2021/12/12 00:09:22;;;;;;;116.38;57.92;;;;;;;-0.12;100.00;99508.00;2079546;28;20230;-73
2021/12/12 00:10:37;;;;;;;116.38;58.47;;;;;;;-0.12;100.00;99519.28;2079231;28;20740;-73
2021/12/12 00:11:55;;;;;;;106.90;56.10;;;;;;;-0.09;100.00;99525.91;2078723;28;20257;-72
2021/12/12 00:13:11;;;;;;;122.18;58.25;;;;;;;-0.08;100.00;99522.31;2072404;28;20294;-73
2021/12/12 00:14:30;;;;;;;109.95;58.20;;;;;;;-0.03;100.00;99523.25;2072821;28;20227;-73
2021/12/12 00:15:32;;;;;;;115.85;56.15;;;;;;;-0.03;100.00;99520.63;2078731;28;20311;-72
2021/12/12 00:16:34;;;;;;;116.72;58.42;;;;;;;-0.06;100.00;99523.69;2079150;28;20230;-75
2021/12/12 00:17:40;;;;;;;110.63;56.50;;;;;;;-0.06;100.00;99528.94;2078553;28;20567;-72
2021/12/12 00:18:57;;;;;;;124.68;58.90;;;;;;;-0.06;100.00;99531.53;2071616;28;20220;-72
2021/12/12 00:20:16;;;;;;;118.43;58.33;;;;;;;-0.10;100.00;99537.44;2078694;28;20254;-74
2021/12/12 00:21:39;;;;;;;118.03;58.33;;;;;;;-0.11;100.00;99541.88;2077875;28;20232;-74
2021/12/12 00:22:45;;;;;;;113.30;57.15;;;;;;;-0.11;100.00;99538.44;2072995;28;20760;-73
2021/12/12 00:23:51;;;;;;;119.55;58.00;;;;;;;-0.12;100.00;99544.72;2078794;28;20690;-73
2021/12/12 00:24:53;;;;;;;117.53;59.38;;;;;;;-0.14;100.00;99550.19;2079110;28;20226;-73
2021/12/12 00:26:03;;;;;;;114.13;56.75;;;;;;;-0.13;100.00;99551.78;2079337;28;20236;-73
2021/12/12 00:27:11;;;;;;;117.50;57.13;;;;;;;-0.15;100.00;99553.81;2078660;28;20306;-73
2021/12/12 00:28:24;;;;;;;113.90;55.97;;;;;;;-0.14;100.00;99550.19;2078797;28;20674;-73
2021/12/12 00:29:44;;;;;;;119.95;58.90;;;;;;;-0.14;100.00;99549.38;2078329;28;20284;-72
2021/12/12 00:30:49;;;;;;;120.38;57.15;;;;;;;-0.12;100.00;99561.25;2078556;28;20380;-72
2021/12/12 00:31:58;;;;;;;109.50;53.63;;;;;;;-0.03;100.00;99562.59;2078289;28;20713;-73
2021/12/12 00:33:08;;;;;;;107.40;55.30;;;;;;;-0.06;100.00;99560.41;2078944;28;20258;-72
2021/12/12 00:34:19;;;;;;;114.68;58.78;;;;;;;-0.02;100.00;99556.31;2067111;28;20229;-73
2021/12/12 00:35:34;;;;;;;118.00;54.83;;;;;;;0.14;100.00;99559.41;2071407;28;20228;-73
2021/12/12 00:36:46;;;;;;;106.28;54.83;;;;;;;0.06;100.00;99551.81;2071630;28;20251;-72
2021/12/12 00:38:10;;;;;;;111.07;54.30;;;;;;;-0.04;100.00;99550.50;2078372;28;20239;-73
2021/12/12 00:39:19;;;;;;;110.32;56.70;;;;;;;-0.05;100.00;99563.81;2078966;28;20306;-73
2021/12/12 00:40:31;;;;;;;109.97;53.80;;;;;;;-0.05;100.00;99562.00;2078168;28;20223;-73
2021/12/12 00:41:43;;;;;;;108.70;53.75;;;;;;;-0.09;100.00;99558.22;2078280;28;20223;-74
2021/12/12 00:43:00;;;;;;;104.57;55.65;;;;;;;-0.09;100.00;99555.59;2079242;28;20251;-73
2021/12/12 00:44:11;;;;;;;111.50;55.50;;;;;;;-0.07;100.00;99560.63;2078869;28;20219;-72
2021/12/12 00:45:28;;;;;;;110.10;56.35;;;;;;;-0.08;100.00;99557.19;2078782;28;20691;-73
2021/12/12 00:46:41;;;;;;;106.05;55.20;;;;;;;-0.01;100.00;99565.78;2079018;28;20632;-72
2021/12/12 00:47:51;;;;;;;112.97;56.90;;;;;;;-0.03;100.00;99548.66;2077958;28;20223;-73
2021/12/12 00:48:59;;;;;;;114.65;53.78;;;;;;;-0.05;100.00;99546.25;2078089;28;21756;-72
2021/12/12 00:50:17;;;;;;;112.22;55.63;;;;;;;-0.02;100.00;99547.66;2078846;28;20234;-73
2021/12/12 00:51:35;;;;;;;107.30;55.72;;;;;;;-0.11;100.00;99544.50;2071690;28;20311;-73
2021/12/12 00:52:50;;;;;;;114.22;55.22;;;;;;;-0.11;100.00;99559.41;2078297;28;20235;-73
2021/12/12 00:54:04;;;;;;;109.18;54.58;;;;;;;-0.13;100.00;99558.84;2078927;28;20226;-73
2021/12/12 00:55:11;;;;;;;110.05;55.80;;;;;;;-0.16;100.00;99554.03;2078836;28;20697;-73
2021/12/12 00:56:18;;;;;;;101.03;53.67;;;;;;;-0.21;100.00;99557.28;2078794;28;20606;-73
2021/12/12 00:57:23;;;;;;;101.95;52.08;;;;;;;-0.22;100.00;99555.69;2070505;28;20232;-73
2021/12/12 00:58:31;;;;;;;102.30;52.10;;;;;;;-0.22;100.00;99568.00;2070682;28;20228;-72
2021/12/12 00:59:44;;;;;;;99.22;51.78;;;;;;;-0.23;100.00;99558.53;2070877;28;20220;-73
2021/12/12 01:01:03;;;;;;;107.18;53.60;;;;;;;-0.23;100.00;99558.53;2078097;28;20223;-75
2021/12/12 01:02:20;;;;;;;102.43;53.45;;;;;;;-0.28;100.00;99546.03;2077844;28;20227;-73
2021/12/12 01:03:36;;;;;;;102.88;54.00;;;;;;;-0.22;100.00;99566.16;2072199;28;20223;-73
2021/12/12 01:04:44;;;;;;;97.53;50.13;;;;;;;-0.23;100.00;99561.16;2078173;28;20693;-72
2021/12/12 01:05:56;;;;;;;98.68;52.00;;;;;;;-0.24;100.00;99568.22;2079118;28;20233;-73
2021/12/12 01:07:09;;;;;;;101.05;52.97;;;;;;;-0.24;100.00;99567.41;2078585;28;20221;-72
2021/12/12 01:08:32;;;;;;;94.28;50.38;;;;;;;-0.23;100.00;99569.00;2077882;28;20306;-73
2021/12/12 01:10:03;;;;;;;92.72;49.03;;;;;;;-0.23;100.00;99575.06;2078008;28;20231;-73
2021/12/12 01:11:11;;;;;;;85.97;46.33;;;;;;;-0.23;100.00;99566.38;2073005;28;20293;-73
2021/12/12 01:12:23;;;;;;;96.72;50.53;;;;;;;-0.25;100.00;99561.38;2070682;28;20224;-73
2021/12/12 01:13:24;;;;;;;93.18;50.33;;;;;;;-0.25;100.00;99563.19;2077910;28;20693;-73
2021/12/12 01:14:41;;;;;;;80.32;44.10;;;;;;;-0.19;100.00;99554.44;2079043;28;20637;-73
2021/12/12 01:15:59;;;;;;;86.72;47.60;;;;;;;-0.18;100.00;99556.84;2078747;28;20712;-73
2021/12/12 01:17:13;;;;;;;92.15;47.00;;;;;;;-0.19;100.00;99546.56;2078776;28;20231;-73
2021/12/12 01:18:33;;;;;;;77.07;40.75;;;;;;;-0.18;100.00;99548.97;2077693;28;20223;-73
2021/12/12 01:19:43;;;;;;;86.70;46.15;;;;;;;-0.13;100.00;99561.47;2065799;28;20601;-73
2021/12/12 01:20:54;;;;;;;77.00;43.80;;;;;;;-0.16;100.00;99554.84;2062967;28;20318;-73
2021/12/12 01:22:05;;;;;;;78.70;45.05;;;;;;;-0.15;100.00;99558.25;2076906;28;20585;-73
2021/12/12 01:23:30;;;;;;;82.68;43.65;;;;;;;-0.17;100.00;99561.09;2078620;28;20679;-73
2021/12/12 01:24:59;;;;;;;80.25;45.03;;;;;;;-0.20;100.00;99558.09;2078293;28;20251;-73
2021/12/12 01:26:19;;;;;;;78.68;42.58;;;;;;;-0.22;100.00;99560.94;2078649;28;20302;-72
2021/12/12 01:27:22;;;;;;;83.53;45.78;;;;;;;-0.22;100.00;99560.94;2077514;28;20329;-73
2021/12/12 01:28:35;;;;;;;72.30;41.50;;;;;;;-0.24;100.00;99560.34;2069959;28;20232;-73
2021/12/12 01:29:45;;;;;;;69.90;41.53;;;;;;;-0.24;100.00;99551.69;2071426;28;20228;-73
2021/12/12 01:31:00;;;;;;;78.50;42.72;;;;;;;-0.27;100.00;99558.13;2077881;28;20571;-72
2021/12/12 01:32:21;;;;;;;90.13;47.50;;;;;;;-0.26;100.00;99559.75;2070565;28;20234;-73
2021/12/12 01:33:38;;;;;;;78.93;44.13;;;;;;;-0.25;100.00;99561.38;2066366;28;27356;-73
2021/12/12 01:34:54;;;;;;;77.63;43.42;;;;;;;-0.26;100.00;99562.38;2074015;28;20258;-72
2021/12/12 01:35:56;;;;;;;78.68;43.85;;;;;;;-0.27;100.00;99558.13;2078459;28;20569;-73
2021/12/12 01:37:12;;;;;;;75.25;43.05;;;;;;;-0.26;100.00;99564.16;2078925;28;20227;-72
2021/12/12 01:40:01;;;;;;;79.57;44.10;;;;;;;-0.26;100.00;99565.00;2078335;28;20692;-73
2021/12/12 01:41:19;;;;;;;82.50;44.20;;;;;;;-0.25;100.00;99566.59;2071553;28;20238;-73
2021/12/12 01:42:38;;;;;;;77.63;42.03;;;;;;;-0.24;100.00;99570.81;2076263;28;20284;-72
2021/12/12 01:44:03;;;;;;;78.40;43.85;;;;;;;-0.25;100.00;99574.47;2078538;28;20250;-74
2021/12/12 01:45:17;;;;;;;81.22;44.53;;;;;;;-0.24;100.00;99568.22;2078250;28;20227;-72
2021/12/12 01:46:25;;;;;;;77.30;46.10;;;;;;;-0.25;100.00;99569.22;2078504;28;20228;-74
2021/12/12 01:47:45;;;;;;;79.22;45.47;;;;;;;-0.28;100.00;99564.38;2077929;28;20224;-71
2021/12/12 01:49:14;;;;;;;86.68;46.50;;;;;;;-0.25;100.00;99569.22;2077751;28;20223;-72
2021/12/12 01:50:27;;;;;;;84.78;46.13;;;;;;;-0.28;100.00;99572.25;2076924;28;20250;-72
2021/12/12 01:51:34;;;;;;;91.57;48.03;;;;;;;-0.25;100.00;99571.84;2077854;28;20610;-72
2021/12/12 01:52:36;;;;;;;93.88;48.35;;;;;;;-0.25;100.00;99574.47;2071144;28;20236;-72
2021/12/12 01:53:43;;;;;;;93.03;49.60;;;;;;;-0.26;100.00;99570.25;2069862;28;20224;-72
2021/12/12 01:55:03;;;;;;;90.43;48.33;;;;;;;-0.29;100.00;99566.22;2070707;28;20220;-72
2021/12/12 01:56:21;;;;;;;85.90;48.40;;;;;;;-0.27;100.00;99571.22;2072076;28;20256;-72
2021/12/12 01:57:35;;;;;;;81.90;46.95;;;;;;;-0.26;100.00;99564.16;2076920;28;20642;-72
2021/12/12 01:58:59;;;;;;;89.53;48.50;;;;;;;-0.29;100.00;99566.22;2078432;28;20738;-72
2021/12/12 02:00:16;;;;;;;91.93;49.80;;;;;;;-0.27;100.00;99573.84;2078271;28;20280;-74
2021/12/12 02:01:26;;;;;;;95.07;51.60;;;;;;;-0.28;100.00;99573.06;2077607;28;20219;-72
2021/12/12 02:02:43;;;;;;;97.97;50.30;;;;;;;-0.31;100.00;99570.88;2077919;28;20581;-72
2021/12/12 02:04:00;;;;;;;97.55;51.25;;;;;;;-0.30;100.00;99569.84;2078005;28;20310;-72
2021/12/12 02:05:18;;;;;;;101.35;53.40;;;;;;;-0.28;100.00;99567.00;2077900;28;20222;-73
2021/12/12 02:06:28;;;;;;;95.75;51.95;;;;;;;-0.29;100.00;99568.84;2071775;28;20228;-72
2021/12/12 02:07:38;;;;;;;93.55;51.15;;;;;;;-0.29;100.00;99568.84;2078018;28;20661;-72
2021/12/12 02:08:49;;;;;;;108.80;54.30;;;;;;;-0.30;100.00;99569.06;2077706;28;20228;-72
2021/12/12 02:10:08;;;;;;;101.53;53.40;;;;;;;-0.27;100.00;99579.09;2070712;28;20223;-73
2021/12/12 02:11:27;;;;;;;102.25;54.40;;;;;;;-0.29;100.00;99578.50;2077793;28;20233;-72
2021/12/12 02:12:40;;;;;;;119.50;54.80;;;;;;;-0.29;100.00;99576.69;2078510;28;20226;-72
2021/12/12 02:13:58;;;;;;;109.32;55.92;;;;;;;-0.31;100.00;99583.19;2078486;28;20219;-72
2021/12/12 02:15:07;;;;;;;108.45;55.53;;;;;;;-0.32;100.00;99581.56;2077715;28;20223;-72
2021/12/12 02:16:17;;;;;;;107.00;54.63;;;;;;;-0.33;100.00;99583.41;2070846;28;20232;-72
2021/12/12 02:17:29;;;;;;;104.43;55.40;;;;;;;-0.34;100.00;99579.16;2077751;28;20258;-73
2021/12/12 02:18:48;;;;;;;108.38;54.58;;;;;;;-0.35;100.00;99580.19;2077850;28;20227;-73
2021/12/12 02:20:11;;;;;;;111.13;55.50;;;;;;;-0.36;100.00;99585.63;2071594;28;20285;-72
2021/12/12 02:21:32;;;;;;;104.60;55.35;;;;;;;-0.39;100.00;99580.81;2077625;28;20219;-72
2021/12/12 02:23:02;;;;;;;102.43;53.63;;;;;;;-0.41;100.00;99577.59;2077629;28;20239;-72
2021/12/12 02:35:06;;;;;;;113.68;55.35;;;;;;;-0.39;100.00;99583.44;2077304;28;20309;-72
2021/12/12 02:36:05;;;;;;;101.93;52.40;;;;;;;-0.43;100.00;99590.13;2072073;28;20215;-72
2021/12/12 02:37:13;;;;;;;101.07;52.90;;;;;;;-0.48;100.00;99580.25;2077764;28;20321;-72
2021/12/12 02:38:30;;;;;;;96.80;51.67;;;;;;;-0.44;100.00;99583.25;2078026;28;20566;-72
2021/12/12 02:39:38;;;;;;;106.32;52.10;;;;;;;-0.46;100.00;99580.84;2065564;28;20675;-72
2021/12/12 02:40:48;;;;;;;93.72;50.38;;;;;;;-0.50;100.00;99578.88;2076230;28;20231;-72
2021/12/12 02:42:04;;;;;;;100.32;49.95;;;;;;;-0.48;100.00;99571.59;2078348;28;20243;-72
2021/12/12 02:43:17;;;;;;;99.40;49.55;;;;;;;-0.46;100.00;99583.47;2078017;28;20661;-72
2021/12/12 02:44:34;;;;;;;96.82;50.03;;;;;;;-0.36;100.00;99585.63;2071239;28;20228;-72
2021/12/12 02:45:44;;;;;;;97.07;49.75;;;;;;;-0.38;100.00;99590.28;2077611;28;20272;-72
2021/12/12 02:47:09;;;;;;;94.18;48.40;;;;;;;-0.38;100.00;99590.28;2078661;28;20780;-72
2021/12/12 02:48:21;;;;;;;95.28;50.70;;;;;;;-0.39;100.00;99581.59;2077273;28;20286;-73
2021/12/12 02:49:53;;;;;;;91.95;48.90;;;;;;;-0.40;100.00;99580.00;2070653;28;20232;-72
2021/12/12 02:51:15;;;;;;;91.55;48.97;;;;;;;-0.40;100.00;99580.00;2072828;28;20221;-72
2021/12/12 02:52:28;;;;;;;85.95;48.28;;;;;;;-0.39;100.00;99581.59;2072217;28;20219;-72
2021/12/12 02:53:52;;;;;;;86.85;46.92;;;;;;;-0.32;100.00;99585.00;2077934;28;20224;-72
2021/12/12 02:55:00;;;;;;;95.93;47.15;;;;;;;-0.34;100.00;99594.09;2077983;28;20219;-72
2021/12/12 02:56:10;;;;;;;90.70;46.78;;;;;;;-0.35;100.00;99595.91;2077776;28;20257;-72
2021/12/12 02:57:27;;;;;;;88.85;47.67;;;;;;;-0.36;100.00;99590.84;2071047;28;20220;-72
2021/12/12 02:58:44;;;;;;;94.97;46.45;;;;;;;-0.35;100.00;99589.84;2077561;28;20223;-73
2021/12/12 02:59:58;;;;;;;93.25;47.15;;;;;;;-0.33;100.00;99590.47;2078516;28;20245;-72
2021/12/12 03:01:15;;;;;;;89.93;46.55;;;;;;;-0.33;100.00;99593.06;2066679;28;20583;-72
2021/12/12 03:02:31;;;;;;;84.07;44.78;;;;;;;-0.31;100.00;99597.09;2077270;28;20241;-72
2021/12/12 03:03:35;;;;;;;83.78;45.20;;;;;;;-0.26;100.00;99600.88;2078765;28;20696;-73
2021/12/12 03:04:43;;;;;;;82.20;46.00;;;;;;;-0.27;100.00;99594.84;2071723;28;20232;-72
2021/12/12 03:05:57;;;;;;;80.38;45.42;;;;;;;-0.28;100.00;99596.66;2072224;28;20330;-72
2021/12/12 03:07:03;;;;;;;85.60;45.63;;;;;;;-0.23;100.00;99603.91;2079290;28;20241;-72
2021/12/12 03:08:19;;;;;;;85.45;46.15;;;;;;;-0.22;100.00;99613.38;2079120;28;20233;-72
2021/12/12 03:09:42;;;;;;;91.70;47.55;;;;;;;-0.21;100.00;99607.09;2079088;28;20227;-72
2021/12/12 03:10:50;;;;;;;91.93;46.50;;;;;;;-0.21;100.00;99611.53;2078915;28;20393;-72
2021/12/12 03:11:57;;;;;;;89.70;45.20;;;;;;;-0.22;100.00;99605.50;2078940;28;20265;-72
2021/12/12 03:13:02;;;;;;;87.65;45.78;;;;;;;-0.22;100.00;99608.13;2080099;28;20247;-72
2021/12/12 03:14:17;;;;;;;89.53;46.50;;;;;;;-0.23;100.00;99606.53;2078799;28;20231;-72
2021/12/12 03:15:38;;;;;;;83.30;45.15;;;;;;;-0.22;100.00;99613.38;2072671;28;20297;-72
2021/12/12 03:16:44;;;;;;;84.57;45.38;;;;;;;-0.24;100.00;99615.41;2068314;28;20579;-72
2021/12/12 03:17:58;;;;;;;84.32;46.28;;;;;;;-0.21;100.00;99614.97;2064094;28;20229;-72
2021/12/12 03:19:09;;;;;;;86.30;45.25;;;;;;;-0.19;100.00;99623.41;2078832;28;20229;-72
2021/12/12 03:20:23;;;;;;;85.35;45.95;;;;;;;-0.11;100.00;99627.59;2078943;28;20228;-72
2021/12/12 03:21:38;;;;;;;88.68;46.83;;;;;;;-0.19;100.00;99617.38;2072644;28;20231;-72
2021/12/12 03:22:49;;;;;;;86.47;45.10;;;;;;;-0.21;100.00;99625.47;2071046;28;20242;-72
2021/12/12 03:24:06;;;;;;;91.03;45.78;;;;;;;-0.20;100.00;99623.63;2078839;28;20739;-72
2021/12/12 03:25:23;;;;;;;85.55;45.63;;;;;;;-0.22;100.00;99623.06;2079148;28;20227;-72
2021/12/12 03:26:33;;;;;;;97.88;47.03;;;;;;;-0.30;100.00;99611.00;2078913;28;20219;-71
2021/12/12 03:27:37;;;;;;;95.10;46.55;;;;;;;-0.23;100.00;99627.50;2079453;28;20254;-72
2021/12/12 03:28:43;;;;;;;91.20;47.95;;;;;;;-0.24;100.00;99631.13;2079396;28;20227;-72
2021/12/12 03:30:02;;;;;;;89.25;46.28;;;;;;;-0.23;100.00;99622.25;2071604;28;20290;-72
2021/12/12 03:31:22;;;;;;;89.25;46.45;;;;;;;-0.29;100.00;99621.25;2078790;28;20227;-71
2021/12/12 03:32:34;;;;;;;83.18;45.15;;;;;;;-0.29;100.00;99629.13;2079088;28;20586;-71
2021/12/12 03:33:50;;;;;;;88.80;46.58;;;;;;;-0.31;100.00;99614.63;2071720;28;20236;-72
2021/12/12 03:34:58;;;;;;;91.43;47.33;;;;;;;-0.30;100.00;99624.09;2078790;28;20577;-71
2021/12/12 03:36:07;;;;;;;78.90;45.30;;;;;;;-0.35;100.00;99621.31;2078929;28;20632;-71
2021/12/12 03:37:23;;;;;;;83.90;46.47;;;;;;;-0.33;100.00;99627.16;2072413;28;20691;-72
2021/12/12 03:38:37;;;;;;;93.70;48.17;;;;;;;-0.33;100.00;99627.97;2078370;28;20230;-72
2021/12/12 03:39:57;;;;;;;87.47;46.42;;;;;;;-0.28;100.00;99627.31;2079331;28;20315;-71
2021/12/12 03:41:19;;;;;;;81.28;45.08;;;;;;;-0.32;100.00;99628.75;2073364;28;20238;-71
2021/12/12 03:42:26;;;;;;;83.00;44.58;;;;;;;-0.33;100.00;99617.47;2073044;28;20227;-71
2021/12/12 03:43:37;;;;;;;86.55;46.58;;;;;;;-0.33;100.00;99627.16;2070683;28;20227;-71
2021/12/12 03:44:49;;;;;;;88.80;45.75;;;;;;;-0.37;100.00;99623.34;2072710;28;20315;-72
2021/12/12 03:46:05;;;;;;;84.95;45.50;;;;;;;-0.34;100.00;99633.41;2077489;28;20223;-72
2021/12/12 03:47:26;;;;;;;82.57;45.28;;;;;;;-0.35;100.00;99634.41;2078508;28;20227;-71
2021/12/12 03:48:38;;;;;;;89.20;44.85;;;;;;;-0.29;100.00;99639.63;2078830;28;20753;-71
2021/12/12 03:49:56;;;;;;;90.90;45.78;;;;;;;-0.28;100.00;99627.31;2078602;28;20269;-71
2021/12/12 03:51:02;;;;;;;83.05;45.45;;;;;;;-0.29;100.00;99638.81;2072251;28;20243;-71
2021/12/12 03:52:10;;;;;;;87.00;46.03;;;;;;;-0.30;100.00;99645.06;2070835;28;20270;-72
2021/12/12 03:53:22;;;;;;;80.72;44.70;;;;;;;-0.33;100.00;99633.19;2079149;28;20614;-72
2021/12/12 03:54:37;;;;;;;80.10;45.90;;;;;;;-0.35;100.00;99643.09;2079037;28;20300;-72
2021/12/12 03:55:57;;;;;;;84.75;44.60;;;;;;;-0.33;100.00;99635.03;2078950;28;20245;-72
2021/12/12 03:57:10;;;;;;;82.90;44.90;;;;;;;-0.32;100.00;99644.50;2079372;28;20725;-72
2021/12/12 03:58:21;;;;;;;83.65;46.30;;;;;;;-0.32;100.00;99640.06;2079275;28;20219;-72
2021/12/12 03:59:31;;;;;;;71.65;41.75;;;;;;;-0.33;100.00;99638.44;2078633;28;20682;-72
2021/12/12 04:00:40;;;;;;;70.03;39.67;;;;;;;-0.30;100.00;99638.00;2078679;28;20230;-71
2021/12/12 04:01:51;;;;;;;74.20;42.78;;;;;;;-0.27;100.00;99631.53;2079775;28;20307;-71
2021/12/12 04:03:10;;;;;;;75.82;42.03;;;;;;;-0.28;100.00;99629.94;2078666;28;20219;-72
2021/12/12 04:04:27;;;;;;;76.32;40.90;;;;;;;-0.30;100.00;99626.72;2078760;28;20302;-71
2021/12/12 04:05:33;;;;;;;68.93;40.05;;;;;;;-0.33;100.00;99638.44;2073262;28;20227;-72
2021/12/12 04:06:47;;;;;;;68.03;37.35;;;;;;;-0.33;100.00;99638.44;2078342;28;20243;-71
2021/12/12 04:07:55;;;;;;;72.22;39.72;;;;;;;-0.32;100.00;99640.06;2078246;28;20231;-71
2021/12/12 04:09:03;;;;;;;72.22;41.00;;;;;;;-0.33;100.00;99642.88;2070977;28;20220;-72
2021/12/12 04:10:20;;;;;;;70.25;41.05;;;;;;;-0.35;100.00;99639.66;2078483;28;20306;-72
2021/12/12 04:11:39;;;;;;;64.35;38.95;;;;;;;-0.34;100.00;99636.84;2078086;28;20250;-74
2021/12/12 04:12:57;;;;;;;60.22;36.00;;;;;;;-0.28;100.00;99638.59;2078522;28;20219;-71
2021/12/12 04:14:13;;;;;;;60.00;36.30;;;;;;;-0.23;100.00;99637.97;2079016;28;20655;-73
2021/12/12 04:15:24;;;;;;;69.03;38.92;;;;;;;-0.24;100.00;99646.06;2078808;28;20370;-72
2021/12/12 04:16:38;;;;;;;58.65;35.97;;;;;;;-0.25;100.00;99640.00;2070968;28;20224;-71
2021/12/12 04:17:51;;;;;;;60.45;36.83;;;;;;;-0.24;100.00;99641.63;2077203;28;20302;-72
2021/12/12 04:19:02;;;;;;;62.63;36.55;;;;;;;-0.23;100.00;99648.47;2071690;28;20773;-71
2021/12/12 04:20:23;;;;;;;57.25;35.22;;;;;;;-0.21;100.00;99641.19;2071363;28;20234;-72
2021/12/12 04:21:43;;;;;;;54.88;33.63;;;;;;;-0.18;100.00;99638.13;2073185;28;20342;-71
2021/12/12 04:22:51;;;;;;;55.40;34.20;;;;;;;-0.21;100.00;99635.94;2072792;28;20248;-72
2021/12/12 04:23:59;;;;;;;55.05;34.47;;;;;;;-0.21;100.00;99635.16;2078453;28;20227;-72
2021/12/12 04:25:09;;;;;;;50.88;33.45;;;;;;;-0.24;100.00;99636.38;2078739;28;20306;-71
2021/12/12 04:26:26;;;;;;;50.95;33.03;;;;;;;-0.21;100.00;99637.75;2072120;28;20219;-72
2021/12/12 04:27:42;;;;;;;51.78;31.17;;;;;;;-0.20;100.00;99632.31;2072585;28;20223;-71
2021/12/12 04:29:01;;;;;;;57.17;33.42;;;;;;;-0.20;100.00;99629.69;2072118;28;20660;-71
2021/12/12 04:30:18;;;;;;;53.63;32.58;;;;;;;-0.19;100.00;99633.09;2078320;28;20241;-72
2021/12/12 04:31:36;;;;;;;52.28;33.65;;;;;;;-0.20;100.00;99629.69;2079062;28;20284;-72
2021/12/12 04:32:51;;;;;;;47.03;31.08;;;;;;;-0.22;100.00;99621.22;2076789;28;20555;-72
2021/12/12 04:34:07;;;;;;;51.05;31.42;;;;;;;-0.20;100.00;99632.31;2076569;28;20227;-71
2021/12/12 04:35:20;;;;;;;52.97;32.13;;;;;;;-0.21;100.00;99629.91;2078357;28;20302;-72
2021/12/12 04:36:34;;;;;;;52.72;33.80;;;;;;;-0.22;100.00;99623.84;2078990;28;20257;-71
2021/12/12 04:37:39;;;;;;;56.05;34.05;;;;;;;-0.21;100.00;99635.94;2071461;28;20232;-72
2021/12/12 04:38:51;;;;;;;56.00;35.15;;;;;;;-0.20;100.00;99642.78;2070408;28;20646;-72
2021/12/12 04:40:04;;;;;;;54.72;35.38;;;;;;;-0.21;100.00;99640.38;2077240;28;20721;-71
2021/12/12 04:41:18;;;;;;;60.03;35.10;;;;;;;-0.22;100.00;99644.81;2070787;28;20227;-71
2021/12/12 04:42:42;;;;;;;48.03;32.40;;;;;;;-0.21;100.00;99645.63;2078028;28;20226;-71
2021/12/12 04:43:51;;;;;;;56.60;33.78;;;;;;;-0.20;100.00;99642.78;2078650;28;20231;-71
2021/12/12 04:44:59;;;;;;;53.78;33.72;;;;;;;-0.19;100.00;99648.84;2071331;28;20240;-71
2021/12/12 04:46:12;;;;;;;58.58;33.75;;;;;;;-0.22;100.00;99650.06;2071212;28;20220;-72
2021/12/12 04:50:32;;;;;;;54.25;33.53;;;;;;;-0.20;100.00;99655.91;2077730;28;20294;-71
2021/12/12 04:51:40;;;;;;;56.35;33.03;;;;;;;-0.20;100.00;99653.28;2078349;28;20253;-72
2021/12/12 04:52:48;;;;;;;53.22;33.85;;;;;;;-0.20;100.00;99655.91;2078555;28;20231;-71
2021/12/12 04:53:57;;;;;;;53.70;31.90;;;;;;;-0.21;100.00;99656.91;2078289;28;20231;-72
2021/12/12 04:55:12;;;;;;;48.28;32.05;;;;;;;-0.21;100.00;99664.78;2078867;28;20219;-71
2021/12/12 04:56:37;;;;;;;49.55;31.98;;;;;;;-0.22;100.00;99659.75;2078458;28;20318;-71
2021/12/12 04:57:52;;;;;;;48.95;33.10;;;;;;;-0.21;100.00;99666.59;2077711;28;20574;-71
2021/12/12 04:59:06;;;;;;;50.95;32.88;;;;;;;-0.22;100.00;99670.25;2072115;28;20250;-72
2021/12/12 05:00:14;;;;;;;57.53;34.03;;;;;;;-0.21;100.00;99677.09;2071207;28;20239;-71
2021/12/12 05:01:23;;;;;;;55.80;34.35;;;;;;;-0.21;100.00;99677.91;2071046;28;20224;-71
2021/12/12 05:02:36;;;;;;;57.42;35.85;;;;;;;-0.22;100.00;99684.16;2070773;28;20219;-72
2021/12/12 05:04:00;;;;;;;65.82;37.53;;;;;;;-0.23;100.00;99689.63;2076980;28;20231;-72
2021/12/12 05:05:11;;;;;;;61.83;37.38;;;;;;;-0.26;100.00;99688.22;2078149;28;20682;-72
2021/12/12 05:06:32;;;;;;;69.03;38.78;;;;;;;-0.25;100.00;99696.91;2078694;28;20238;-72
2021/12/12 05:07:41;;;;;;;64.68;38.78;;;;;;;-0.26;100.00;99701.34;2065901;28;20278;-71
2021/12/12 05:08:55;;;;;;;64.75;37.55;;;;;;;-0.27;100.00;99704.94;2078494;28;20231;-72
2021/12/12 05:10:06;;;;;;;72.38;40.83;;;;;;;-0.24;100.00;99714.22;2078264;28;20222;-72
2021/12/12 05:11:32;;;;;;;72.22;41.25;;;;;;;-0.28;100.00;99709.38;2078295;28;20223;-72
2021/12/12 05:12:54;;;;;;;78.90;42.00;;;;;;;-0.29;100.00;99704.34;2077763;28;20398;-73
2021/12/12 05:14:12;;;;;;;71.97;40.20;;;;;;;-0.31;100.00;99698.53;2072680;28;20260;-72
2021/12/12 05:15:30;;;;;;;75.78;41.03;;;;;;;-0.30;100.00;99708.00;2071837;28;20277;-72
2021/12/12 05:16:40;;;;;;;73.40;41.78;;;;;;;-0.31;100.00;99706.41;2077951;28;20256;-72
2021/12/12 05:17:56;;;;;;;73.55;40.42;;;;;;;-0.32;100.00;99712.66;2071667;28;20704;-72
2021/12/12 05:19:17;;;;;;;73.65;42.50;;;;;;;-0.32;100.00;99710.84;2071688;28;20227;-72
2021/12/12 05:20:33;;;;;;;70.78;41.45;;;;;;;-0.30;100.00;99713.25;2070304;28;20239;-73
2021/12/12 05:21:51;;;;;;;78.57;42.42;;;;;;;-0.31;100.00;99711.63;2078162;28;20230;-72
2021/12/12 05:23:01;;;;;;;76.00;42.72;;;;;;;-0.31;100.00;99715.06;2078325;28;20250;-72
2021/12/12 05:24:13;;;;;;;75.43;42.35;;;;;;;-0.37;100.00;99705.41;2072426;28;20335;-73
2021/12/12 05:25:21;;;;;;;78.60;43.72;;;;;;;-0.33;100.00;99711.03;2070912;28;20254;-72
2021/12/12 05:26:43;;;;;;;78.75;45.30;;;;;;;-0.36;100.00;99720.09;2076827;28;20242;-73
2021/12/12 05:28:02;;;;;;;86.53;45.88;;;;;;;-0.40;100.00;99715.50;2073458;28;20307;-72
2021/12/12 05:29:30;;;;;;;87.63;46.20;;;;;;;-0.35;100.00;99726.16;2078027;28;20226;-72
2021/12/12 05:30:50;;;;;;;86.53;46.30;;;;;;;-0.38;100.00;99734.44;2077518;28;20247;-72
2021/12/12 05:31:56;;;;;;;82.30;44.60;;;;;;;-0.40;100.00;99732.03;2078056;28;20229;-72
2021/12/12 05:33:07;;;;;;;75.35;42.00;;;;;;;-0.36;100.00;99735.03;2078534;28;20289;-72
2021/12/12 05:34:21;;;;;;;74.07;42.15;;;;;;;-0.37;100.00;99736.84;2078056;28;20705;-72
2021/12/12 05:35:47;;;;;;;81.45;42.97;;;;;;;-0.34;100.00;99740.91;2078459;28;20223;-72
2021/12/12 05:36:57;;;;;;;86.22;45.03;;;;;;;-0.36;100.00;99738.47;2071431;28;20295;-72
2021/12/12 05:38:16;;;;;;;80.30;44.75;;;;;;;-0.29;100.00;99741.88;2077985;28;20247;-73
2021/12/12 05:39:26;;;;;;;75.45;41.17;;;;;;;-0.29;100.00;99738.44;2078472;28;20247;-72
2021/12/12 05:40:42;;;;;;;69.05;40.35;;;;;;;-0.31;100.00;99745.72;2078949;28;20219;-72
2021/12/12 05:41:48;;;;;;;76.53;43.30;;;;;;;-0.36;100.00;99740.28;2069738;28;20243;-73
2021/12/12 05:43:04;;;;;;;74.20;42.30;;;;;;;-0.36;100.00;99737.66;2070385;28;20231;-72
2021/12/12 05:44:20;;;;;;;76.07;42.92;;;;;;;-0.38;100.00;99735.25;2071344;28;20631;-72
2021/12/12 05:45:40;;;;;;;74.95;43.60;;;;;;;-0.40;100.00;99742.53;2077554;28;20243;-72
2021/12/12 05:46:54;;;;;;;76.90;44.65;;;;;;;-0.43;100.00;99737.72;2077904;28;20219;-72
2021/12/12 05:47:57;;;;;;;81.38;44.30;;;;;;;-0.42;100.00;99734.06;2071534;28;20239;-72
2021/12/12 05:49:06;;;;;;;81.40;44.25;;;;;;;-0.43;100.00;99750.00;2078056;28;20233;-72
2021/12/12 05:50:16;;;;;;;75.55;44.55;;;;;;;-0.43;100.00;99750.00;2078456;28;20245;-73